sensor_id;sensor_type;location;lat;lon;timestamp;P1;durP1;ratioP1;P2;durP2;ratioP2
12745;SDS011;6437;53.686;10.030;2023-05-02T00:01:03;36.08;;;23.98;;
12745;SDS011;6437;53.686;10.030;2023-05-02T00:05:07;32.42;;;22.27;;
12745;SDS011;6437;53.686;10.030;2023-05-02T00:07:09;27.00;;;22.10;;
12745;SDS011;6437;53.686;10.030;2023-05-02T00:09:11;29.50;;;21.63;;
12745;SDS011;6437;53.686;10.030;2023-05-02T00:11:16;30.50;;;23.75;;
12745;SDS011;6437;53.686;10.030;2023-05-02T00:13:17;28.15;;;22.02;;
12745;SDS011;6437;53.686;10.030;2023-05-02T00:17:21;27.58;;;22.20;;
12745;SDS011;6437;53.686;10.030;2023-05-02T00:19:23;33.97;;;25.33;;
12745;SDS011;6437;53.686;10.030;2023-05-02T00:21:25;36.65;;;25.73;;
12745;SDS011;6437;53.686;10.030;2023-05-02T00:23:28;36.20;;;24.98;;
12745;SDS011;6437;53.686;10.030;2023-05-02T00:25:30;33.00;;;26.10;;
12745;SDS011;6437;53.686;10.030;2023-05-02T00:27:33;39.53;;;27.73;;
12745;SDS011;6437;53.686;10.030;2023-05-02T00:29:35;44.15;;;28.77;;
12745;SDS011;6437;53.686;10.030;2023-05-02T00:31:38;36.22;;;27.40;;
12745;SDS011;6437;53.686;10.030;2023-05-02T00:33:40;34.10;;;26.15;;
12745;SDS011;6437;53.686;10.030;2023-05-02T00:35:42;36.65;;;28.20;;
12745;SDS011;6437;53.686;10.030;2023-05-02T00:37:44;37.65;;;27.55;;
12745;SDS011;6437;53.686;10.030;2023-05-02T00:39:46;35.35;;;29.30;;
12745;SDS011;6437;53.686;10.030;2023-05-02T00:41:48;37.20;;;28.10;;
12745;SDS011;6437;53.686;10.030;2023-05-02T00:43:51;37.15;;;29.13;;
12745;SDS011;6437;53.686;10.030;2023-05-02T00:45:53;35.78;;;26.60;;
12745;SDS011;6437;53.686;10.030;2023-05-02T00:47:55;39.88;;;29.17;;
12745;SDS011;6437;53.686;10.030;2023-05-02T00:49:57;38.65;;;27.13;;
12745;SDS011;6437;53.686;10.030;2023-05-02T00:52:00;32.03;;;26.20;;
12745;SDS011;6437;53.686;10.030;2023-05-02T00:54:01;39.88;;;30.50;;
12745;SDS011;6437;53.686;10.030;2023-05-02T00:56:04;38.75;;;28.30;;
12745;SDS011;6437;53.686;10.030;2023-05-02T00:58:09;36.10;;;27.00;;
12745;SDS011;6437;53.686;10.030;2023-05-02T01:00:18;33.80;;;22.67;;
12745;SDS011;6437;53.686;10.030;2023-05-02T01:02:29;30.50;;;21.05;;
12745;SDS011;6437;53.686;10.030;2023-05-02T01:04:37;26.15;;;21.65;;
12745;SDS011;6437;53.686;10.030;2023-05-02T01:06:47;27.65;;;21.58;;
12745;SDS011;6437;53.686;10.030;2023-05-02T01:09:01;26.60;;;20.73;;
12745;SDS011;6437;53.686;10.030;2023-05-02T01:11:12;32.35;;;23.02;;
12745;SDS011;6437;53.686;10.030;2023-05-02T01:13:17;32.58;;;23.63;;
12745;SDS011;6437;53.686;10.030;2023-05-02T01:15:23;31.13;;;22.83;;
12745;SDS011;6437;53.686;10.030;2023-05-02T01:17:26;34.85;;;22.88;;
12745;SDS011;6437;53.686;10.030;2023-05-02T01:19:31;36.95;;;22.63;;
12745;SDS011;6437;53.686;10.030;2023-05-02T01:21:36;42.55;;;25.95;;
12745;SDS011;6437;53.686;10.030;2023-05-02T01:23:44;30.52;;;22.40;;
12745;SDS011;6437;53.686;10.030;2023-05-02T01:25:55;34.40;;;22.98;;
12745;SDS011;6437;53.686;10.030;2023-05-02T01:28:09;34.95;;;22.20;;
12745;SDS011;6437;53.686;10.030;2023-05-02T01:30:18;31.40;;;22.23;;
12745;SDS011;6437;53.686;10.030;2023-05-02T01:32:22;31.45;;;20.55;;
12745;SDS011;6437;53.686;10.030;2023-05-02T01:34:26;28.23;;;21.13;;
12745;SDS011;6437;53.686;10.030;2023-05-02T01:36:29;33.00;;;20.80;;
12745;SDS011;6437;53.686;10.030;2023-05-02T01:38:32;29.15;;;20.65;;
12745;SDS011;6437;53.686;10.030;2023-05-02T01:40:36;32.38;;;20.95;;
12745;SDS011;6437;53.686;10.030;2023-05-02T01:42:39;31.23;;;18.73;;
12745;SDS011;6437;53.686;10.030;2023-05-02T01:44:42;32.63;;;18.15;;
12745;SDS011;6437;53.686;10.030;2023-05-02T01:46:47;26.15;;;17.98;;
12745;SDS011;6437;53.686;10.030;2023-05-02T01:48:52;28.83;;;19.35;;
12745;SDS011;6437;53.686;10.030;2023-05-02T01:50:56;30.35;;;19.73;;
12745;SDS011;6437;53.686;10.030;2023-05-02T01:52:59;24.90;;;17.38;;
12745;SDS011;6437;53.686;10.030;2023-05-02T01:55:04;23.75;;;16.15;;
12745;SDS011;6437;53.686;10.030;2023-05-02T01:57:09;24.23;;;16.02;;
12745;SDS011;6437;53.686;10.030;2023-05-02T01:59:13;25.63;;;14.75;;
12745;SDS011;6437;53.686;10.030;2023-05-02T02:01:18;29.15;;;17.38;;
12745;SDS011;6437;53.686;10.030;2023-05-02T02:05:24;19.27;;;12.88;;
12745;SDS011;6437;53.686;10.030;2023-05-02T02:07:27;20.73;;;14.10;;
12745;SDS011;6437;53.686;10.030;2023-05-02T02:09:29;17.63;;;10.85;;
12745;SDS011;6437;53.686;10.030;2023-05-02T02:11:34;13.30;;;9.55;;
12745;SDS011;6437;53.686;10.030;2023-05-02T02:13:41;15.40;;;8.32;;
12745;SDS011;6437;53.686;10.030;2023-05-02T02:15:46;9.27;;;6.18;;
12745;SDS011;6437;53.686;10.030;2023-05-02T02:17:52;7.78;;;5.00;;
12745;SDS011;6437;53.686;10.030;2023-05-02T02:20:02;10.20;;;5.13;;
12745;SDS011;6437;53.686;10.030;2023-05-02T02:22:07;9.05;;;4.85;;
12745;SDS011;6437;53.686;10.030;2023-05-02T02:24:09;6.05;;;3.75;;
12745;SDS011;6437;53.686;10.030;2023-05-02T02:26:12;9.30;;;5.28;;
12745;SDS011;6437;53.686;10.030;2023-05-02T02:28:17;7.93;;;4.75;;
12745;SDS011;6437;53.686;10.030;2023-05-02T02:30:19;6.15;;;3.78;;
12745;SDS011;6437;53.686;10.030;2023-05-02T02:32:21;7.93;;;2.42;;
12745;SDS011;6437;53.686;10.030;2023-05-02T02:34:23;8.73;;;1.80;;
12745;SDS011;6437;53.686;10.030;2023-05-02T02:38:35;6.28;;;1.75;;
12745;SDS011;6437;53.686;10.030;2023-05-02T02:40:43;7.63;;;3.08;;
12745;SDS011;6437;53.686;10.030;2023-05-02T02:42:51;12.70;;;2.58;;
12745;SDS011;6437;53.686;10.030;2023-05-02T02:45:03;10.10;;;2.05;;
12745;SDS011;6437;53.686;10.030;2023-05-02T02:47:10;14.30;;;2.05;;
12745;SDS011;6437;53.686;10.030;2023-05-02T02:49:25;13.70;;;2.88;;
12745;SDS011;6437;53.686;10.030;2023-05-02T02:51:36;19.17;;;2.90;;
12745;SDS011;6437;53.686;10.030;2023-05-02T02:53:46;20.63;;;3.28;;
12745;SDS011;6437;53.686;10.030;2023-05-02T02:55:59;15.95;;;3.03;;
12745;SDS011;6437;53.686;10.030;2023-05-02T02:58:08;23.05;;;4.03;;
12745;SDS011;6437;53.686;10.030;2023-05-02T03:00:19;26.60;;;4.10;;
12745;SDS011;6437;53.686;10.030;2023-05-02T03:02:25;35.25;;;5.93;;
12745;SDS011;6437;53.686;10.030;2023-05-02T03:04:31;30.05;;;5.18;;
12745;SDS011;6437;53.686;10.030;2023-05-02T03:06:36;26.27;;;4.82;;
12745;SDS011;6437;53.686;10.030;2023-05-02T03:08:38;30.90;;;4.18;;
12745;SDS011;6437;53.686;10.030;2023-05-02T03:10:40;31.20;;;4.78;;
12745;SDS011;6437;53.686;10.030;2023-05-02T03:12:42;21.77;;;4.97;;
12745;SDS011;6437;53.686;10.030;2023-05-02T03:14:44;30.52;;;4.50;;
12745;SDS011;6437;53.686;10.030;2023-05-02T03:16:45;30.20;;;4.30;;
12745;SDS011;6437;53.686;10.030;2023-05-02T03:18:47;27.80;;;5.80;;
12745;SDS011;6437;53.686;10.030;2023-05-02T03:20:49;24.88;;;3.83;;
12745;SDS011;6437;53.686;10.030;2023-05-02T03:24:54;18.58;;;3.75;;
12745;SDS011;6437;53.686;10.030;2023-05-02T03:26:56;22.30;;;4.05;;
12745;SDS011;6437;53.686;10.030;2023-05-02T03:28:58;19.80;;;3.50;;
12745;SDS011;6437;53.686;10.030;2023-05-02T03:31:00;28.20;;;4.50;;
12745;SDS011;6437;53.686;10.030;2023-05-02T03:33:02;27.10;;;4.57;;
12745;SDS011;6437;53.686;10.030;2023-05-02T03:35:07;31.42;;;4.38;;
12745;SDS011;6437;53.686;10.030;2023-05-02T03:37:09;28.40;;;3.40;;
12745;SDS011;6437;53.686;10.030;2023-05-02T03:39:12;23.48;;;3.70;;
12745;SDS011;6437;53.686;10.030;2023-05-02T03:41:14;30.85;;;4.13;;
12745;SDS011;6437;53.686;10.030;2023-05-02T03:43:16;25.30;;;3.97;;
12745;SDS011;6437;53.686;10.030;2023-05-02T03:45:20;24.10;;;4.43;;
12745;SDS011;6437;53.686;10.030;2023-05-02T03:47:22;39.85;;;5.32;;
12745;SDS011;6437;53.686;10.030;2023-05-02T03:49:24;29.08;;;3.25;;
12745;SDS011;6437;53.686;10.030;2023-05-02T03:51:26;49.42;;;4.25;;
12745;SDS011;6437;53.686;10.030;2023-05-02T03:53:28;27.25;;;4.63;;
12745;SDS011;6437;53.686;10.030;2023-05-02T03:55:31;27.55;;;3.22;;
12745;SDS011;6437;53.686;10.030;2023-05-02T03:57:33;24.73;;;3.85;;
12745;SDS011;6437;53.686;10.030;2023-05-02T03:59:35;17.13;;;4.05;;
12745;SDS011;6437;53.686;10.030;2023-05-02T04:01:40;17.00;;;3.40;;
12745;SDS011;6437;53.686;10.030;2023-05-02T04:03:42;30.35;;;4.22;;
12745;SDS011;6437;53.686;10.030;2023-05-02T04:05:44;22.48;;;3.17;;
12745;SDS011;6437;53.686;10.030;2023-05-02T04:09:47;29.63;;;3.30;;
12745;SDS011;6437;53.686;10.030;2023-05-02T04:11:51;27.40;;;3.45;;
12745;SDS011;6437;53.686;10.030;2023-05-02T04:13:52;24.33;;;3.92;;
12745;SDS011;6437;53.686;10.030;2023-05-02T04:15:54;28.35;;;3.70;;
12745;SDS011;6437;53.686;10.030;2023-05-02T04:17:56;41.47;;;5.70;;
12745;SDS011;6437;53.686;10.030;2023-05-02T04:19:58;20.92;;;4.47;;
12745;SDS011;6437;53.686;10.030;2023-05-02T04:22:00;35.17;;;4.57;;
12745;SDS011;6437;53.686;10.030;2023-05-02T04:24:03;14.95;;;3.30;;
12745;SDS011;6437;53.686;10.030;2023-05-02T04:26:05;25.42;;;3.03;;
12745;SDS011;6437;53.686;10.030;2023-05-02T04:28:08;26.40;;;5.50;;
12745;SDS011;6437;53.686;10.030;2023-05-02T04:30:10;20.60;;;3.40;;
12745;SDS011;6437;53.686;10.030;2023-05-02T04:34:16;32.35;;;4.43;;
12745;SDS011;6437;53.686;10.030;2023-05-02T04:36:18;25.15;;;3.85;;
12745;SDS011;6437;53.686;10.030;2023-05-02T04:38:20;25.05;;;4.53;;
12745;SDS011;6437;53.686;10.030;2023-05-02T04:40:22;17.98;;;3.60;;
12745;SDS011;6437;53.686;10.030;2023-05-02T04:42:24;31.08;;;5.05;;
12745;SDS011;6437;53.686;10.030;2023-05-02T04:44:30;24.85;;;3.80;;
12745;SDS011;6437;53.686;10.030;2023-05-02T04:46:32;29.33;;;3.78;;
12745;SDS011;6437;53.686;10.030;2023-05-02T04:48:34;32.05;;;3.90;;
12745;SDS011;6437;53.686;10.030;2023-05-02T04:50:36;19.17;;;3.42;;
12745;SDS011;6437;53.686;10.030;2023-05-02T04:52:37;34.10;;;2.45;;
12745;SDS011;6437;53.686;10.030;2023-05-02T04:54:39;28.70;;;3.92;;
12745;SDS011;6437;53.686;10.030;2023-05-02T04:56:41;19.38;;;3.05;;
12745;SDS011;6437;53.686;10.030;2023-05-02T04:58:43;16.58;;;2.80;;
12745;SDS011;6437;53.686;10.030;2023-05-02T05:00:46;27.38;;;3.05;;
12745;SDS011;6437;53.686;10.030;2023-05-02T05:02:48;32.05;;;2.58;;
12745;SDS011;6437;53.686;10.030;2023-05-02T05:04:50;27.52;;;2.15;;
12745;SDS011;6437;53.686;10.030;2023-05-02T05:06:51;23.17;;;3.35;;
12745;SDS011;6437;53.686;10.030;2023-05-02T05:08:53;21.08;;;4.50;;
12745;SDS011;6437;53.686;10.030;2023-05-02T05:10:55;13.82;;;2.15;;
12745;SDS011;6437;53.686;10.030;2023-05-02T05:12:57;22.63;;;2.63;;
12745;SDS011;6437;53.686;10.030;2023-05-02T05:14:59;24.52;;;2.13;;
12745;SDS011;6437;53.686;10.030;2023-05-02T05:17:02;29.55;;;3.30;;
12745;SDS011;6437;53.686;10.030;2023-05-02T05:19:04;20.23;;;2.58;;
12745;SDS011;6437;53.686;10.030;2023-05-02T05:21:05;21.10;;;3.47;;
12745;SDS011;6437;53.686;10.030;2023-05-02T05:23:07;25.75;;;2.67;;
12745;SDS011;6437;53.686;10.030;2023-05-02T05:25:09;24.35;;;2.70;;
12745;SDS011;6437;53.686;10.030;2023-05-02T05:29:13;28.38;;;3.60;;
12745;SDS011;6437;53.686;10.030;2023-05-02T05:31:15;20.23;;;3.35;;
12745;SDS011;6437;53.686;10.030;2023-05-02T05:33:20;21.15;;;3.00;;
12745;SDS011;6437;53.686;10.030;2023-05-02T05:35:22;20.80;;;3.03;;
12745;SDS011;6437;53.686;10.030;2023-05-02T05:39:26;21.42;;;2.45;;
12745;SDS011;6437;53.686;10.030;2023-05-02T05:41:27;20.95;;;3.50;;
12745;SDS011;6437;53.686;10.030;2023-05-02T05:43:30;26.50;;;3.20;;
12745;SDS011;6437;53.686;10.030;2023-05-02T05:45:32;19.23;;;3.60;;
12745;SDS011;6437;53.686;10.030;2023-05-02T05:47:33;18.80;;;2.33;;
12745;SDS011;6437;53.686;10.030;2023-05-02T05:49:36;21.15;;;5.72;;
12745;SDS011;6437;53.686;10.030;2023-05-02T05:51:38;32.75;;;2.97;;
12745;SDS011;6437;53.686;10.030;2023-05-02T05:53:40;26.10;;;3.53;;
12745;SDS011;6437;53.686;10.030;2023-05-02T05:55:42;18.23;;;2.65;;
12745;SDS011;6437;53.686;10.030;2023-05-02T05:57:44;13.15;;;1.63;;
12745;SDS011;6437;53.686;10.030;2023-05-02T05:59:46;13.65;;;1.98;;
12745;SDS011;6437;53.686;10.030;2023-05-02T06:01:47;17.63;;;2.35;;
12745;SDS011;6437;53.686;10.030;2023-05-02T06:03:49;18.20;;;2.90;;
12745;SDS011;6437;53.686;10.030;2023-05-02T06:05:53;19.65;;;3.10;;
12745;SDS011;6437;53.686;10.030;2023-05-02T06:07:55;21.55;;;3.30;;
12745;SDS011;6437;53.686;10.030;2023-05-02T06:09:57;23.08;;;2.13;;
12745;SDS011;6437;53.686;10.030;2023-05-02T06:12:00;8.02;;;1.60;;
12745;SDS011;6437;53.686;10.030;2023-05-02T06:14:02;19.15;;;3.20;;
12745;SDS011;6437;53.686;10.030;2023-05-02T06:16:04;12.70;;;1.83;;
12745;SDS011;6437;53.686;10.030;2023-05-02T06:18:06;24.85;;;2.00;;
12745;SDS011;6437;53.686;10.030;2023-05-02T06:20:08;11.68;;;2.25;;
12745;SDS011;6437;53.686;10.030;2023-05-02T06:24:13;18.83;;;2.33;;
12745;SDS011;6437;53.686;10.030;2023-05-02T06:26:15;12.02;;;1.95;;
12745;SDS011;6437;53.686;10.030;2023-05-02T06:28:20;18.73;;;1.92;;
12745;SDS011;6437;53.686;10.030;2023-05-02T06:30:22;22.95;;;2.45;;
12745;SDS011;6437;53.686;10.030;2023-05-02T06:32:24;27.27;;;3.17;;
12745;SDS011;6437;53.686;10.030;2023-05-02T06:34:30;16.83;;;1.60;;
12745;SDS011;6437;53.686;10.030;2023-05-02T06:36:32;10.85;;;1.70;;
12745;SDS011;6437;53.686;10.030;2023-05-02T06:38:35;6.85;;;1.38;;
12745;SDS011;6437;53.686;10.030;2023-05-02T06:40:37;12.55;;;0.93;;
12745;SDS011;6437;53.686;10.030;2023-05-02T06:42:44;16.13;;;1.80;;
12745;SDS011;6437;53.686;10.030;2023-05-02T06:44:47;12.95;;;1.38;;
12745;SDS011;6437;53.686;10.030;2023-05-02T06:46:51;10.88;;;1.90;;
12745;SDS011;6437;53.686;10.030;2023-05-02T06:48:54;13.52;;;1.45;;
12745;SDS011;6437;53.686;10.030;2023-05-02T06:50:56;17.77;;;1.27;;
12745;SDS011;6437;53.686;10.030;2023-05-02T06:52:58;15.20;;;2.15;;
12745;SDS011;6437;53.686;10.030;2023-05-02T06:57:03;14.43;;;1.60;;
12745;SDS011;6437;53.686;10.030;2023-05-02T06:59:05;15.10;;;1.40;;
12745;SDS011;6437;53.686;10.030;2023-05-02T07:01:06;11.77;;;1.90;;
12745;SDS011;6437;53.686;10.030;2023-05-02T07:03:08;9.07;;;1.42;;
12745;SDS011;6437;53.686;10.030;2023-05-02T07:05:10;6.70;;;0.98;;
12745;SDS011;6437;53.686;10.030;2023-05-02T07:07:12;12.18;;;1.10;;
12745;SDS011;6437;53.686;10.030;2023-05-02T07:09:19;7.57;;;1.08;;
12745;SDS011;6437;53.686;10.030;2023-05-02T07:11:23;19.55;;;2.30;;
12745;SDS011;6437;53.686;10.030;2023-05-02T07:13:26;13.00;;;1.80;;
12745;SDS011;6437;53.686;10.030;2023-05-02T07:15:28;8.18;;;1.35;;
12745;SDS011;6437;53.686;10.030;2023-05-02T07:17:30;8.25;;;1.17;;
12745;SDS011;6437;53.686;10.030;2023-05-02T07:19:32;13.02;;;1.20;;
12745;SDS011;6437;53.686;10.030;2023-05-02T07:21:34;4.82;;;0.88;;
12745;SDS011;6437;53.686;10.030;2023-05-02T07:23:36;14.07;;;1.38;;
12745;SDS011;6437;53.686;10.030;2023-05-02T07:25:38;11.43;;;0.68;;
12745;SDS011;6437;53.686;10.030;2023-05-02T07:27:41;8.02;;;1.10;;
12745;SDS011;6437;53.686;10.030;2023-05-02T07:29:42;4.93;;;1.00;;
12745;SDS011;6437;53.686;10.030;2023-05-02T07:31:44;7.13;;;1.45;;
12745;SDS011;6437;53.686;10.030;2023-05-02T07:33:46;8.02;;;1.40;;
12745;SDS011;6437;53.686;10.030;2023-05-02T07:35:48;8.07;;;1.15;;
12745;SDS011;6437;53.686;10.030;2023-05-02T07:37:50;11.80;;;1.15;;
12745;SDS011;6437;53.686;10.030;2023-05-02T07:39:52;14.05;;;1.67;;
12745;SDS011;6437;53.686;10.030;2023-05-02T07:41:53;8.70;;;0.98;;
12745;SDS011;6437;53.686;10.030;2023-05-02T07:46:02;16.13;;;0.90;;
12745;SDS011;6437;53.686;10.030;2023-05-02T07:48:05;17.30;;;1.48;;
12745;SDS011;6437;53.686;10.030;2023-05-02T07:50:07;13.88;;;0.73;;
12745;SDS011;6437;53.686;10.030;2023-05-02T07:52:09;15.38;;;1.77;;
12745;SDS011;6437;53.686;10.030;2023-05-02T07:54:14;11.70;;;1.27;;
12745;SDS011;6437;53.686;10.030;2023-05-02T07:56:16;9.38;;;1.13;;
12745;SDS011;6437;53.686;10.030;2023-05-02T07:58:20;15.38;;;1.27;;
12745;SDS011;6437;53.686;10.030;2023-05-02T08:00:23;12.50;;;0.75;;
12745;SDS011;6437;53.686;10.030;2023-05-02T08:02:25;12.40;;;1.50;;
12745;SDS011;6437;53.686;10.030;2023-05-02T08:04:27;7.93;;;1.08;;
12745;SDS011;6437;53.686;10.030;2023-05-02T08:06:29;6.53;;;1.88;;
12745;SDS011;6437;53.686;10.030;2023-05-02T08:08:32;17.30;;;1.50;;
12745;SDS011;6437;53.686;10.030;2023-05-02T08:10:33;20.38;;;1.42;;
12745;SDS011;6437;53.686;10.030;2023-05-02T08:12:36;18.20;;;3.05;;
12745;SDS011;6437;53.686;10.030;2023-05-02T08:14:39;20.65;;;1.98;;
12745;SDS011;6437;53.686;10.030;2023-05-02T08:16:42;11.43;;;1.55;;
12745;SDS011;6437;53.686;10.030;2023-05-02T08:18:44;10.60;;;2.00;;
12745;SDS011;6437;53.686;10.030;2023-05-02T08:20:46;8.88;;;1.05;;
12745;SDS011;6437;53.686;10.030;2023-05-02T08:22:49;9.10;;;0.85;;
12745;SDS011;6437;53.686;10.030;2023-05-02T08:24:51;4.90;;;0.82;;
12745;SDS011;6437;53.686;10.030;2023-05-02T08:26:53;8.80;;;0.98;;
12745;SDS011;6437;53.686;10.030;2023-05-02T08:28:55;9.18;;;1.17;;
12745;SDS011;6437;53.686;10.030;2023-05-02T08:30:56;7.60;;;0.77;;
12745;SDS011;6437;53.686;10.030;2023-05-02T08:32:59;15.23;;;1.83;;
12745;SDS011;6437;53.686;10.030;2023-05-02T08:35:01;10.07;;;1.27;;
12745;SDS011;6437;53.686;10.030;2023-05-02T08:37:06;9.90;;;1.40;;
12745;SDS011;6437;53.686;10.030;2023-05-02T08:39:08;10.75;;;1.80;;
12745;SDS011;6437;53.686;10.030;2023-05-02T08:41:10;12.02;;;1.30;;
12745;SDS011;6437;53.686;10.030;2023-05-02T08:43:12;15.52;;;0.93;;
12745;SDS011;6437;53.686;10.030;2023-05-02T08:45:16;17.42;;;2.42;;
12745;SDS011;6437;53.686;10.030;2023-05-02T08:47:19;10.98;;;1.30;;
12745;SDS011;6437;53.686;10.030;2023-05-02T08:49:24;10.25;;;1.02;;
12745;SDS011;6437;53.686;10.030;2023-05-02T08:51:28;14.15;;;0.82;;
12745;SDS011;6437;53.686;10.030;2023-05-02T08:53:32;12.05;;;2.25;;
12745;SDS011;6437;53.686;10.030;2023-05-02T08:55:35;11.80;;;1.50;;
12745;SDS011;6437;53.686;10.030;2023-05-02T08:57:39;11.95;;;1.15;;
12745;SDS011;6437;53.686;10.030;2023-05-02T08:59:43;13.68;;;1.30;;
12745;SDS011;6437;53.686;10.030;2023-05-02T09:01:45;5.68;;;0.98;;
12745;SDS011;6437;53.686;10.030;2023-05-02T09:03:55;9.05;;;1.05;;
12745;SDS011;6437;53.686;10.030;2023-05-02T09:06:03;9.25;;;1.42;;
12745;SDS011;6437;53.686;10.030;2023-05-02T09:08:07;13.43;;;1.88;;
12745;SDS011;6437;53.686;10.030;2023-05-02T09:10:09;17.00;;;1.70;;
12745;SDS011;6437;53.686;10.030;2023-05-02T09:12:12;18.13;;;1.55;;
12745;SDS011;6437;53.686;10.030;2023-05-02T09:14:15;7.90;;;1.10;;
12745;SDS011;6437;53.686;10.030;2023-05-02T09:18:21;6.20;;;0.93;;
12745;SDS011;6437;53.686;10.030;2023-05-02T09:20:24;15.93;;;1.25;;
12745;SDS011;6437;53.686;10.030;2023-05-02T09:22:27;15.10;;;1.35;;
12745;SDS011;6437;53.686;10.030;2023-05-02T09:24:29;9.15;;;0.82;;
12745;SDS011;6437;53.686;10.030;2023-05-02T09:26:31;10.82;;;1.85;;
12745;SDS011;6437;53.686;10.030;2023-05-02T09:28:39;11.93;;;1.13;;
12745;SDS011;6437;53.686;10.030;2023-05-02T09:30:42;6.55;;;0.95;;
12745;SDS011;6437;53.686;10.030;2023-05-02T09:32:44;16.30;;;1.00;;
12745;SDS011;6437;53.686;10.030;2023-05-02T09:37:07;6.28;;;1.15;;
12745;SDS011;6437;53.686;10.030;2023-05-02T09:39:13;10.20;;;1.48;;
12745;SDS011;6437;53.686;10.030;2023-05-02T09:41:16;6.25;;;0.93;;
12745;SDS011;6437;53.686;10.030;2023-05-02T09:43:18;4.35;;;0.70;;
12745;SDS011;6437;53.686;10.030;2023-05-02T09:45:21;6.68;;;0.93;;
12745;SDS011;6437;53.686;10.030;2023-05-02T09:47:23;4.82;;;0.88;;
12745;SDS011;6437;53.686;10.030;2023-05-02T09:49:39;8.30;;;1.25;;
12745;SDS011;6437;53.686;10.030;2023-05-02T09:51:41;7.65;;;1.10;;
12745;SDS011;6437;53.686;10.030;2023-05-02T09:55:46;8.32;;;1.23;;
12745;SDS011;6437;53.686;10.030;2023-05-02T09:57:49;13.90;;;0.70;;
12745;SDS011;6437;53.686;10.030;2023-05-02T09:59:54;6.63;;;1.17;;
12745;SDS011;6437;53.686;10.030;2023-05-02T10:01:57;5.75;;;1.05;;
12745;SDS011;6437;53.686;10.030;2023-05-02T10:03:59;11.52;;;1.40;;
12745;SDS011;6437;53.686;10.030;2023-05-02T10:08:04;3.17;;;0.90;;
12745;SDS011;6437;53.686;10.030;2023-05-02T10:10:07;7.60;;;1.08;;
12745;SDS011;6437;53.686;10.030;2023-05-02T10:12:16;13.93;;;1.27;;
12745;SDS011;6437;53.686;10.030;2023-05-02T10:14:22;8.55;;;1.08;;
12745;SDS011;6437;53.686;10.030;2023-05-02T10:16:27;5.30;;;1.15;;
12745;SDS011;6437;53.686;10.030;2023-05-02T10:18:32;18.10;;;1.50;;
12745;SDS011;6437;53.686;10.030;2023-05-02T10:20:42;8.85;;;0.80;;
12745;SDS011;6437;53.686;10.030;2023-05-02T10:22:49;7.05;;;1.00;;
12745;SDS011;6437;53.686;10.030;2023-05-02T10:24:53;6.75;;;1.00;;
12745;SDS011;6437;53.686;10.030;2023-05-02T10:26:57;6.03;;;0.93;;
12745;SDS011;6437;53.686;10.030;2023-05-02T10:29:01;5.00;;;1.00;;
12745;SDS011;6437;53.686;10.030;2023-05-02T10:31:03;7.88;;;1.58;;
12745;SDS011;6437;53.686;10.030;2023-05-02T10:33:06;8.50;;;1.70;;
12745;SDS011;6437;53.686;10.030;2023-05-02T10:35:08;12.57;;;0.93;;
12745;SDS011;6437;53.686;10.030;2023-05-02T10:37:10;6.30;;;1.05;;
12745;SDS011;6437;53.686;10.030;2023-05-02T10:39:12;10.50;;;1.00;;
12745;SDS011;6437;53.686;10.030;2023-05-02T10:41:16;16.17;;;1.17;;
12745;SDS011;6437;53.686;10.030;2023-05-02T10:43:25;8.20;;;1.02;;
12745;SDS011;6437;53.686;10.030;2023-05-02T10:45:33;7.90;;;1.55;;
12745;SDS011;6437;53.686;10.030;2023-05-02T10:47:36;4.72;;;0.50;;
12745;SDS011;6437;53.686;10.030;2023-05-02T10:49:47;9.05;;;1.10;;
12745;SDS011;6437;53.686;10.030;2023-05-02T10:51:53;8.27;;;0.65;;
12745;SDS011;6437;53.686;10.030;2023-05-02T10:56:19;9.68;;;1.27;;
12745;SDS011;6437;53.686;10.030;2023-05-02T10:58:21;4.97;;;1.33;;
12745;SDS011;6437;53.686;10.030;2023-05-02T11:00:23;4.80;;;0.80;;
12745;SDS011;6437;53.686;10.030;2023-05-02T11:05:00;10.85;;;1.08;;
12745;SDS011;6437;53.686;10.030;2023-05-02T11:07:16;6.78;;;0.80;;
12745;SDS011;6437;53.686;10.030;2023-05-02T11:09:34;11.82;;;0.73;;
12745;SDS011;6437;53.686;10.030;2023-05-02T11:11:39;9.35;;;1.25;;
12745;SDS011;6437;53.686;10.030;2023-05-02T11:13:48;8.82;;;1.33;;
12745;SDS011;6437;53.686;10.030;2023-05-02T11:15:54;9.57;;;1.02;;
12745;SDS011;6437;53.686;10.030;2023-05-02T11:18:01;9.40;;;1.10;;
12745;SDS011;6437;53.686;10.030;2023-05-02T11:20:17;5.28;;;0.57;;
12745;SDS011;6437;53.686;10.030;2023-05-02T11:22:32;8.13;;;0.63;;
12745;SDS011;6437;53.686;10.030;2023-05-02T11:24:37;4.50;;;0.65;;
12745;SDS011;6437;53.686;10.030;2023-05-02T11:26:39;20.08;;;1.83;;
12745;SDS011;6437;53.686;10.030;2023-05-02T11:28:42;5.90;;;0.82;;
12745;SDS011;6437;53.686;10.030;2023-05-02T11:30:46;7.32;;;0.98;;
12745;SDS011;6437;53.686;10.030;2023-05-02T11:33:16;9.50;;;0.65;;
12745;SDS011;6437;53.686;10.030;2023-05-02T11:35:19;13.10;;;1.33;;
12745;SDS011;6437;53.686;10.030;2023-05-02T11:37:22;7.85;;;1.08;;
12745;SDS011;6437;53.686;10.030;2023-05-02T11:39:24;4.70;;;1.15;;
12745;SDS011;6437;53.686;10.030;2023-05-02T11:41:37;11.05;;;1.15;;
12745;SDS011;6437;53.686;10.030;2023-05-02T11:43:38;18.13;;;1.77;;
12745;SDS011;6437;53.686;10.030;2023-05-02T11:45:40;4.63;;;1.15;;
12745;SDS011;6437;53.686;10.030;2023-05-02T11:49:46;8.73;;;0.93;;
12745;SDS011;6437;53.686;10.030;2023-05-02T11:51:48;7.53;;;1.00;;
12745;SDS011;6437;53.686;10.030;2023-05-02T11:53:52;7.88;;;0.70;;
12745;SDS011;6437;53.686;10.030;2023-05-02T11:55:56;10.68;;;0.90;;
12745;SDS011;6437;53.686;10.030;2023-05-02T11:57:59;5.32;;;1.00;;
12745;SDS011;6437;53.686;10.030;2023-05-02T12:00:01;9.85;;;1.17;;
12745;SDS011;6437;53.686;10.030;2023-05-02T12:02:04;7.75;;;0.60;;
12745;SDS011;6437;53.686;10.030;2023-05-02T12:04:06;7.60;;;1.05;;
12745;SDS011;6437;53.686;10.030;2023-05-02T12:06:11;5.53;;;0.60;;
12745;SDS011;6437;53.686;10.030;2023-05-02T12:08:17;7.78;;;0.75;;
12745;SDS011;6437;53.686;10.030;2023-05-02T12:10:24;4.20;;;0.60;;
12745;SDS011;6437;53.686;10.030;2023-05-02T12:12:36;6.50;;;0.93;;
12745;SDS011;6437;53.686;10.030;2023-05-02T12:14:39;6.95;;;1.15;;
12745;SDS011;6437;53.686;10.030;2023-05-02T12:16:41;6.22;;;0.60;;
12745;SDS011;6437;53.686;10.030;2023-05-02T12:18:43;12.90;;;1.20;;
12745;SDS011;6437;53.686;10.030;2023-05-02T12:20:45;8.80;;;0.98;;
12745;SDS011;6437;53.686;10.030;2023-05-02T12:22:49;12.88;;;0.90;;
12745;SDS011;6437;53.686;10.030;2023-05-02T12:24:51;15.68;;;1.42;;
12745;SDS011;6437;53.686;10.030;2023-05-02T12:27:08;12.35;;;1.63;;
12745;SDS011;6437;53.686;10.030;2023-05-02T12:29:10;9.13;;;0.75;;
12745;SDS011;6437;53.686;10.030;2023-05-02T12:31:12;8.55;;;1.52;;
12745;SDS011;6437;53.686;10.030;2023-05-02T12:33:14;9.32;;;1.23;;
12745;SDS011;6437;53.686;10.030;2023-05-02T12:35:20;13.02;;;1.42;;
12745;SDS011;6437;53.686;10.030;2023-05-02T12:37:22;11.02;;;0.82;;
12745;SDS011;6437;53.686;10.030;2023-05-02T12:39:34;10.50;;;1.42;;
12745;SDS011;6437;53.686;10.030;2023-05-02T12:41:36;15.30;;;1.70;;
12745;SDS011;6437;53.686;10.030;2023-05-02T12:43:44;9.20;;;1.60;;
12745;SDS011;6437;53.686;10.030;2023-05-02T12:45:47;11.63;;;1.52;;
12745;SDS011;6437;53.686;10.030;2023-05-02T12:47:49;9.10;;;1.25;;
12745;SDS011;6437;53.686;10.030;2023-05-02T12:49:55;7.82;;;1.00;;
12745;SDS011;6437;53.686;10.030;2023-05-02T12:51:57;7.82;;;1.13;;
12745;SDS011;6437;53.686;10.030;2023-05-02T12:53:59;6.63;;;0.95;;
12745;SDS011;6437;53.686;10.030;2023-05-02T12:56:03;10.23;;;1.58;;